MSC Barbara — HODU — position and weather

sailwx.info

Track history (hours):
 
Tides and Currents Weather Stations Pressure Air Temp Water Temp Dewpoint Dewpoint Depression Visibility Wind Speed Wind Dir Waves Ship Positions

MSC Barbara

Last reported at 2017-Jan-09 01:28 UTC. Time now 2017-Jan-16 12:59 UTC.
Position S 23°25' W 042°31'.

Length 304 m; draft 11.7 m.

Type: Ship. MMSI: 353775000.

Date/timePositionNaut miles runAvg speedWind from/ knotsBaromVisibWave heightAir tempDewpointWater temp
2017-Jan-09 01:28S 23°25' W 042°31'19714.1
2017-Jan-08 11:31S 24°12' W 045°59'1414.8
2017-Jan-08 10:33S 24°07' W 046°14'8 8.1
2017-Jan-08 09:33S 24°03' W 046°22'1 0.6
2017-Jan-08 08:33S 24°04' W 046°22'7 6.8
2017-Jan-08 07:33S 23°59' W 046°17'5 4.3
2017-Jan-08 06:28S 23°55' W 046°21'0 0.0
2017-Jan-08 05:27S 23°55' W 046°21'0 0.0
2017-Jan-08 02:08S 23°55' W 046°21'0 0.0
2017-Jan-07 19:23S 23°55' W 046°21'0 0.0
2017-Jan-07 16:22S 23°55' W 046°21'1 1.6
2017-Jan-07 15:31S 23°56' W 046°19'6 6.0
2017-Jan-07 14:33S 24°01' W 046°21'1010.0
2017-Jan-07 13:33S 24°11' W 046°20'2 2.3
2017-Jan-07 12:30S 24°13' W 046°18'0 0.0
2017-Jan-07 11:30S 24°13' W 046°18'0 0.0
2017-Jan-07 10:32S 24°13' W 046°18'0 0.0
2017-Jan-07 09:32S 24°13' W 046°18'0 0.0
2017-Jan-07 08:31S 24°13' W 046°18'0 0.0
2017-Jan-07 07:31S 24°13' W 046°18'0 0.0
2017-Jan-07 06:31S 24°13' W 046°18'0 0.0
2017-Jan-07 05:30S 24°13' W 046°18'0 0.0
2017-Jan-07 04:30S 24°13' W 046°18'0 0.0
2017-Jan-07 03:32S 24°13' W 046°18'0 0.0
2017-Jan-07 02:32S 24°13' W 046°18'0 0.0
2017-Jan-07 01:28S 24°13' W 046°18'0 0.0
2017-Jan-07 00:28S 24°13' W 046°18'0 0.0
2017-Jan-06 23:18S 24°13' W 046°18'0 0.0
2017-Jan-06 22:33S 24°13' W 046°18'0 0.0
2017-Jan-06 21:33S 24°13' W 046°18'0 0.0
2017-Jan-06 20:32S 24°13' W 046°18'0 0.0
2017-Jan-06 19:32S 24°13' W 046°18'0 0.0
2017-Jan-06 18:13S 24°13' W 046°18'0 0.0
2017-Jan-06 17:28S 24°13' W 046°18'0 0.0
2017-Jan-06 16:31S 24°13' W 046°18'0 0.0
2017-Jan-06 15:27S 24°13' W 046°18'0 0.0
2017-Jan-06 14:33S 24°13' W 046°18'0 0.0
2017-Jan-06 13:29S 24°13' W 046°18'0 0.0
2017-Jan-06 12:29S 24°13' W 046°18'0 0.0
2017-Jan-06 11:28S 24°13' W 046°18'0 0.0
2017-Jan-06 10:28S 24°13' W 046°18'0 0.0
2017-Jan-06 09:34S 24°13' W 046°18'0 0.0
2017-Jan-06 08:33S 24°13' W 046°18'0 0.0
2017-Jan-06 07:27S 24°13' W 046°18'0 0.0
2017-Jan-06 06:32S 24°13' W 046°18'0 0.0
2017-Jan-06 05:32S 24°13' W 046°18'0 0.0
2017-Jan-06 04:31S 24°13' W 046°18'0 0.0
2017-Jan-06 03:31S 24°13' W 046°18'2 1.8
2017-Jan-06 02:33S 24°14' W 046°20'1111.2
2017-Jan-06 01:33S 24°23' W 046°28'1111.1
2017-Jan-06 00:33S 24°32' W 046°35'1110.8
2017-Jan-05 23:34S 24°40' W 046°42'1110.9
2017-Jan-05 22:33S 24°49' W 046°50'1611.3
2017-Jan-05 21:08S 25°02' W 046°60'911.4
2017-Jan-05 20:23S 25°09' W 047°06'911.4
2017-Jan-05 19:34S 25°16' W 047°12'132 3.5
2017-Jan-04 06:18S 27°18' W 048°10'6 8.6
2017-Jan-04 05:33S 27°24' W 048°12'8 8.4
2017-Jan-04 04:33S 27°32' W 048°13'8 8.1
2017-Jan-04 03:33S 27°40' W 048°15'8 8.0
2017-Jan-04 02:33S 27°48' W 048°17'8 8.0
2017-Jan-04 01:33S 27°56' W 048°19'  
2016-Dec-30 09:33S 34°46' W 057°33'1413.6
2016-Dec-30 08:33S 34°45' W 057°50'1212.1
2016-Dec-30 07:33S 34°39' W 058°03'14 3.4
2016-Dec-30 03:17S 34°38' W 058°21'0 0.0
2016-Dec-30 02:32S 34°38' W 058°21'  
Track history (hours):
 
Tides and Currents Weather Stations Pressure Air Temp Water Temp Dewpoint Dewpoint Depression Visibility Wind Speed Wind Dir Waves Ship Positions

MSC Barbara

Last reported at 2017-Jan-09 01:28 UTC. Time now 2017-Jan-16 12:59 UTC.
Position S 23°25' W 042°31'.

Length 304 m; draft 11.7 m.

Type: Ship. MMSI: 353775000.

Date/timePositionNaut miles runAvg speedWind from/ knotsBaromVisibWave heightAir tempDewpointWater temp
2017-Jan-09 01:28S 23°25' W 042°31'19714.1
2017-Jan-08 11:31S 24°12' W 045°59'1414.8
2017-Jan-08 10:33S 24°07' W 046°14'8 8.1
2017-Jan-08 09:33S 24°03' W 046°22'1 0.6
2017-Jan-08 08:33S 24°04' W 046°22'7 6.8
2017-Jan-08 07:33S 23°59' W 046°17'5 4.3
2017-Jan-08 06:28S 23°55' W 046°21'0 0.0
2017-Jan-08 05:27S 23°55' W 046°21'0 0.0
2017-Jan-08 02:08S 23°55' W 046°21'0 0.0
2017-Jan-07 19:23S 23°55' W 046°21'0 0.0
2017-Jan-07 16:22S 23°55' W 046°21'1 1.6
2017-Jan-07 15:31S 23°56' W 046°19'6 6.0
2017-Jan-07 14:33S 24°01' W 046°21'1010.0
2017-Jan-07 13:33S 24°11' W 046°20'2 2.3
2017-Jan-07 12:30S 24°13' W 046°18'0 0.0
2017-Jan-07 11:30S 24°13' W 046°18'0 0.0
2017-Jan-07 10:32S 24°13' W 046°18'0 0.0
2017-Jan-07 09:32S 24°13' W 046°18'0 0.0
2017-Jan-07 08:31S 24°13' W 046°18'0 0.0
2017-Jan-07 07:31S 24°13' W 046°18'0 0.0
2017-Jan-07 06:31S 24°13' W 046°18'0 0.0
2017-Jan-07 05:30S 24°13' W 046°18'0 0.0
2017-Jan-07 04:30S 24°13' W 046°18'0 0.0
2017-Jan-07 03:32S 24°13' W 046°18'0 0.0
2017-Jan-07 02:32S 24°13' W 046°18'0 0.0
2017-Jan-07 01:28S 24°13' W 046°18'0 0.0
2017-Jan-07 00:28S 24°13' W 046°18'0 0.0
2017-Jan-06 23:18S 24°13' W 046°18'0 0.0
2017-Jan-06 22:33S 24°13' W 046°18'0 0.0
2017-Jan-06 21:33S 24°13' W 046°18'0 0.0
2017-Jan-06 20:32S 24°13' W 046°18'0 0.0
2017-Jan-06 19:32S 24°13' W 046°18'0 0.0
2017-Jan-06 18:13S 24°13' W 046°18'0 0.0
2017-Jan-06 17:28S 24°13' W 046°18'0 0.0
2017-Jan-06 16:31S 24°13' W 046°18'0 0.0
2017-Jan-06 15:27S 24°13' W 046°18'0 0.0
2017-Jan-06 14:33S 24°13' W 046°18'0 0.0
2017-Jan-06 13:29S 24°13' W 046°18'0 0.0
2017-Jan-06 12:29S 24°13' W 046°18'0 0.0
2017-Jan-06 11:28S 24°13' W 046°18'0 0.0
2017-Jan-06 10:28S 24°13' W 046°18'0 0.0
2017-Jan-06 09:34S 24°13' W 046°18'0 0.0
2017-Jan-06 08:33S 24°13' W 046°18'0 0.0
2017-Jan-06 07:27S 24°13' W 046°18'0 0.0
2017-Jan-06 06:32S 24°13' W 046°18'0 0.0
2017-Jan-06 05:32S 24°13' W 046°18'0 0.0
2017-Jan-06 04:31S 24°13' W 046°18'0 0.0
2017-Jan-06 03:31S 24°13' W 046°18'2 1.8
2017-Jan-06 02:33S 24°14' W 046°20'1111.2
2017-Jan-06 01:33S 24°23' W 046°28'1111.1
2017-Jan-06 00:33S 24°32' W 046°35'1110.8
2017-Jan-05 23:34S 24°40' W 046°42'1110.9
2017-Jan-05 22:33S 24°49' W 046°50'1611.3
2017-Jan-05 21:08S 25°02' W 046°60'911.4
2017-Jan-05 20:23S 25°09' W 047°06'911.4
2017-Jan-05 19:34S 25°16' W 047°12'132 3.5
2017-Jan-04 06:18S 27°18' W 048°10'6 8.6
2017-Jan-04 05:33S 27°24' W 048°12'8 8.4
2017-Jan-04 04:33S 27°32' W 048°13'8 8.1
2017-Jan-04 03:33S 27°40' W 048°15'8 8.0
2017-Jan-04 02:33S 27°48' W 048°17'8 8.0
2017-Jan-04 01:33S 27°56' W 048°19'  
2016-Dec-30 09:33S 34°46' W 057°33'1413.6
2016-Dec-30 08:33S 34°45' W 057°50'1212.1
2016-Dec-30 07:33S 34°39' W 058°03'14 3.4
2016-Dec-30 03:17S 34°38' W 058°21'0 0.0
2016-Dec-30 02:32S 34°38' W 058°21'  

Dump ship's entire track history